| time (UTC) | temp C | wind direction | speed KPH | gust KPH | rain 1hr cm | rain 24hr cm | rain mn cm | humidity % | barometer mb |
| 20260503055020 | 9 | 135 | 3.2 | 6.4 | 0.00 | 0.20 | 0.20 | 80 | 1017.2 |
| 20260503054019 | 8 | 145 | 3.2 | 6.4 | 0.00 | 0.20 | 0.20 | 87 | 1017.2 |
| 20260503053018 | 8 | 353 | 1.6 | 3.2 | 0.00 | 0.20 | 0.20 | 85 | 1017.2 |
| 20260503052037 | 9 | 126 | 1.6 | 3.2 | 0.00 | 0.20 | 0.20 | 84 | 1017.5 |
| 20260503051016 | 10 | 133 | 3.2 | 4.8 | 0.00 | 0.20 | 0.20 | 82 | 1017.7 |
| 20260503050015 | 10 | 149 | 3.2 | 6.4 | 0.00 | 0.20 | 0.20 | 81 | 1017.8 |
| 20260503045024 | 10 | 301 | 1.6 | 4.8 | 0.00 | 0.20 | 0.20 | 82 | 1017.5 |
| 20260503044024 | 9 | 284 | 3.2 | 6.4 | 0.00 | 0.20 | 0.20 | 85 | 1017.4 |
| 20260503043023 | 9 | 157 | 3.2 | 4.8 | 0.00 | 0.20 | 0.20 | 86 | 1017.6 |
| 20260503042022 | 10 | 144 | 1.6 | 6.4 | 0.00 | 0.20 | 0.20 | 85 | 1017.6 |
| 20260503041101 | 10 | 305 | 0.0 | 3.2 | 0.00 | 0.20 | 0.20 | 84 | 1017.5 |
| 20260503040021 | 10 | 122 | 1.6 | 4.8 | 0.00 | 0.20 | 0.20 | 81 | 1017.4 |
| 20260503035018 | 10 | 123 | 3.2 | 6.4 | 0.00 | 0.20 | 0.20 | 84 | 1017.2 |
| 20260503034018 | 10 | 297 | 0.0 | 3.2 | 0.03 | 0.20 | 0.20 | 79 | 1016.8 |
| 20260503033015 | 10 | 149 | 3.2 | 8.0 | 0.03 | 0.20 | 0.20 | 81 | 1016.4 |
| 20260503032025 | 10 | 133 | 3.2 | 8.0 | 0.03 | 0.20 | 0.20 | 79 | 1016.3 |
| 20260503031044 | 10 | 126 | 4.8 | 9.7 | 0.03 | 0.20 | 0.20 | 80 | 1015.9 |
| 20260503030044 | 10 | 295 | 1.6 | 4.8 | 0.03 | 0.20 | 0.20 | 80 | 1016.1 |
| 20260503025023 | 10 | 295 | 3.2 | 11.3 | 0.03 | 0.20 | 0.20 | 80 | 1016.2 |
| 20260503024022 | 11 | 151 | 4.8 | 9.7 | 0.00 | 0.18 | 0.18 | 75 | 1016.9 |
| 20260503023019 | 11 | 125 | 4.8 | 9.7 | 0.00 | 0.18 | 0.18 | 78 | 1016.9 |
| 20260503022018 | 10 | 141 | 3.2 | 6.4 | 0.03 | 0.18 | 0.18 | 80 | 1016.9 |
| 20260503021018 | 10 | 132 | 3.2 | 8.0 | 0.05 | 0.18 | 0.18 | 82 | 1016.5 |
| 20260503020015 | 10 | 299 | 3.2 | 9.7 | 0.10 | 0.18 | 0.18 | 82 | 1016.3 |
| 20260503015045 | 10 | 311 | 3.2 | 8.0 | 0.10 | 0.18 | 0.18 | 80 | 1016.4 |
| 20260503014021 | 10 | 177 | 3.2 | 6.4 | 0.10 | 0.18 | 0.18 | 81 | 1016.6 |
| 20260503013018 | 10 | 292 | 4.8 | 8.0 | 0.13 | 0.18 | 0.18 | 78 | 1016.9 |
| 20260503012017 | 11 | 187 | 3.2 | 8.0 | 0.15 | 0.15 | 0.15 | 70 | 1017.1 |
| 20260503011016 | 11 | 180 | 6.4 | 11.3 | 0.13 | 0.13 | 0.13 | 75 | 1017.3 |
| 20260503010015 | 11 | 306 | 4.8 | 9.7 | 0.08 | 0.08 | 0.08 | 75 | 1016.6 |
| 20260503005024 | 12 | 161 | 1.6 | 4.8 | 0.08 | 0.08 | 0.08 | 70 | 1016.2 |
| 20260503004024 | 12 | 178 | 3.2 | 12.9 | 0.08 | 0.08 | 0.08 | 66 | 1016.0 |
| 20260503003043 | 15 | 147 | 6.4 | 12.9 | 0.05 | 0.05 | 0.05 | 55 | 1016.0 |
| 20260503002022 | 16 | 125 | 3.2 | 8.0 | 0.00 | 0.00 | 0.00 | 41 | 1015.5 |
| 20260503001022 | 17 | 152 | 3.2 | 6.4 | 0.00 | 0.00 | 0.00 | 36 | 1015.1 |
| 20260503000021 | 17 | 153 | 1.6 | 3.2 | 0.00 | 0.00 | 0.00 | 35 | 1014.8 |
| 20260502235020 | 17 | 326 | 1.6 | 6.4 | 0.00 | 0.00 | 0.00 | 34 | 1014.8 |
| 20260502234020 | 16 | 135 | 1.6 | 6.4 | 0.00 | 0.00 | 0.00 | 34 | 1015.2 |
| 20260502233019 | 16 | 5 | 1.6 | 3.2 | 0.00 | 0.00 | 0.00 | 35 | 1015.2 |
| 20260502232018 | 16 | 71 | 1.6 | 6.4 | 0.00 | 0.00 | 0.00 | 36 | 1015.4 |
| 20260502231016 | 16 | 141 | 3.2 | 8.0 | 0.00 | 0.00 | 0.00 | 36 | 1015.4 |
| 20260502230035 | 16 | 60 | 4.8 | 11.3 | 0.00 | 0.00 | 0.00 | 38 | 1015.6 |
| 20260502225025 | 16 | 308 | 3.2 | 9.7 | 0.00 | 0.00 | 0.00 | 38 | 1015.7 |
| 20260502224024 | 16 | 336 | 4.8 | 11.3 | 0.00 | 0.00 | 0.00 | 34 | 1016.2 |
| 20260502223023 | 16 | 302 | 4.8 | 8.0 | 0.00 | 0.00 | 0.00 | 36 | 1016.0 |
| 20260502222023 | 17 | 300 | 6.4 | 14.5 | 0.00 | 0.00 | 0.00 | 35 | 1016.0 |
| 20260502221022 | 18 | 144 | 4.8 | 9.7 | 0.00 | 0.00 | 0.00 | 32 | 1015.6 |
| 20260502220041 | 18 | 151 | 8.0 | 19.3 | 0.00 | 0.00 | 0.00 | 29 | 1015.8 |
| 20260502215021 | 18 | 316 | 3.2 | 8.0 | 0.00 | 0.00 | 0.00 | 30 | 1015.9 |
| 20260502214018 | 18 | 151 | 1.6 | 6.4 | 0.00 | 0.00 | 0.00 | 29 | 1016.0 |
| 20260502213018 | 18 | 155 | 3.2 | 6.4 | 0.00 | 0.00 | 0.00 | 29 | 1016.0 |
| 20260502212017 | 18 | 158 | 4.8 | 8.0 | 0.00 | 0.00 | 0.00 | 29 | 1016.2 |
| 20260502211016 | 18 | 139 | 3.2 | 8.0 | 0.00 | 0.00 | 0.00 | 29 | 1016.4 |
| 20260502210016 | 17 | 138 | 3.2 | 9.7 | 0.00 | 0.00 | 0.00 | 30 | 1016.5 |
| 20260502205015 | 18 | 153 | 6.4 | 14.5 | 0.00 | 0.00 | 0.00 | 29 | 1016.7 |
| 20260502204025 | 18 | 310 | 3.2 | 8.0 | 0.00 | 0.00 | 0.00 | 28 | 1016.6 |
| 20260502203024 | 19 | 19 | 3.2 | 8.0 | 0.00 | 0.00 | 0.00 | 27 | 1016.5 |
| 20260502202023 | 19 | 154 | 3.2 | 8.0 | 0.00 | 0.00 | 0.00 | 26 | 1016.4 |
| 20260502201022 | 19 | 131 | 3.2 | 9.7 | 0.00 | 0.00 | 0.00 | 26 | 1016.5 |
| 20260502200022 | 19 | 115 | 4.8 | 9.7 | 0.00 | 0.00 | 0.00 | 25 | 1016.5 |
| 20260502195021 | 19 | 146 | 6.4 | 16.1 | 0.00 | 0.00 | 0.00 | 25 | 1016.7 |
| 20260502194020 | 19 | 144 | 4.8 | 11.3 | 0.00 | 0.00 | 0.00 | 24 | 1016.5 |
| 20260502193018 | 19 | 137 | 6.4 | 16.1 | 0.00 | 0.00 | 0.00 | 25 | 1016.7 |
| 20260502192017 | 20 | 150 | 8.0 | 16.1 | 0.00 | 0.00 | 0.00 | 24 | 1016.7 |
| 20260502191036 | 19 | 152 | 4.8 | 9.7 | 0.00 | 0.00 | 0.00 | 25 | 1016.7 |
| 20260502190036 | 20 | 148 | 4.8 | 11.3 | 0.00 | 0.00 | 0.00 | 24 | 1016.7 |
| 20260502185015 | 19 | 166 | 4.8 | 8.0 | 0.00 | 0.00 | 0.00 | 24 | 1016.8 |
| 20260502184025 | 19 | 156 | 6.4 | 12.9 | 0.00 | 0.00 | 0.00 | 24 | 1017.0 |
| 20260502182022 | 18 | 161 | 3.2 | 6.4 | 0.00 | 0.00 | 0.00 | 26 | 1017.2 |
| 20260502181021 | 18 | 158 | 6.4 | 9.7 | 0.00 | 0.00 | 0.00 | 26 | 1017.2 |
| 20260502164023 | 18 | 309 | 3.2 | 8.0 | 0.00 | 0.00 | 0.00 | 31 | 1017.1 |
| 20260502163023 | 17 | 283 | 3.2 | 6.4 | 0.00 | 0.00 | 0.00 | 33 | 1017.2 |
| 20260502162022 | 17 | 301 | 3.2 | 8.0 | 0.00 | 0.00 | 0.00 | 36 | 1017.2 |
| 20260502161021 | 17 | 316 | 3.2 | 8.0 | 0.00 | 0.00 | 0.00 | 38 | 1017.3 |
| 20260502152023 | 12 | 136 | 1.6 | 6.4 | 0.00 | 0.00 | 0.00 | 50 | 1017.2 |
| 20260502151023 | 12 | 29 | 1.6 | 3.2 | 0.00 | 0.00 | 0.00 | 53 | 1017.2 |
| 20260502123025 | 5 | 123 | 1.6 | 4.8 | 0.00 | 0.00 | 0.00 | 71 | 1016.5 |
| 20260502122022 | 5 | 123 | 1.6 | 4.8 | 0.00 | 0.00 | 0.00 | 70 | 1016.5 |
| 20260502121021 | 5 | 125 | 3.2 | 4.8 | 0.00 | 0.00 | 0.00 | 70 | 1016.4 |
| 20260502115038 | 5 | 119 | 3.2 | 4.8 | 0.00 | 0.00 | 0.00 | 68 | 1016.5 |
| 20260502114017 | 6 | 123 | 1.6 | 3.2 | 0.00 | 0.00 | 0.00 | 65 | 1016.5 |
| 20260502113016 | 6 | 111 | 0.0 | 3.2 | 0.00 | 0.00 | 0.00 | 64 | 1016.4 |
| 20260502112015 | 6 | 137 | 3.2 | 6.4 | 0.00 | 0.00 | 0.00 | 65 | 1016.4 |
| 20260502111025 | 6 | 117 | 3.2 | 4.8 | 0.00 | 0.00 | 0.00 | 64 | 1016.4 |
| 20260502105522 | 6 | 120 | 3.2 | 4.8 | 0.00 | 0.00 | 0.00 | 64 | 1016.4 |
| 20260502104521 | 6 | 125 | 1.6 | 6.4 | 0.00 | 0.00 | 0.00 | 64 | 1016.6 |
| 20260502103520 | 6 | 118 | 1.6 | 3.2 | 0.00 | 0.00 | 0.00 | 63 | 1016.5 |
| 20260502102519 | 6 | 124 | 3.2 | 4.8 | 0.00 | 0.00 | 0.00 | 63 | 1016.5 |
| 20260502101538 | 6 | 124 | 1.6 | 4.8 | 0.00 | 0.00 | 0.00 | 63 | 1016.5 |
| 20260502100518 | 6 | 119 | 1.6 | 3.2 | 0.00 | 0.00 | 0.00 | 62 | 1016.4 |
| 20260502091520 | 7 | 106 | 1.6 | 3.2 | 0.00 | 0.00 | 0.00 | 57 | 1016.8 |
| 20260502090520 | 7 | 127 | 1.6 | 3.2 | 0.00 | 0.00 | 0.00 | 57 | 1016.9 |
| 20260502071520 | 9 | 125 | 3.2 | 4.8 | 0.00 | 0.00 | 0.00 | 41 | 1017.5 |
| 20260502070519 | 9 | 115 | 1.6 | 3.2 | 0.00 | 0.00 | 0.00 | 36 | 1017.7 |